Time;durP1;ratioP1;P1;durP2;ratioP2;P2;SDS_P1;SDS_P2;PMS_P1;PMS_P2;Temp;Humidity;BMP_temperature;BMP_pressure;BME280_temperature;BME280_humidity;BME280_pressure;Samples;Min_cycle;Max_cycle;Signal;HPM_P1;HPM_P2
2023/08/11 00:00:22;;;;;;;8.83;7.40;;;12.20;99.90;;;;;;5033698;28;20202;-76
2023/08/11 00:02:50;;;;;;;7.33;6.50;;;12.30;99.90;;;;;;5032948;28;20229;-75
2023/08/11 00:05:18;;;;;;;6.97;6.17;;;12.40;99.90;;;;;;5032833;28;20589;-77
2023/08/11 00:07:44;;;;;;;9.57;7.03;;;12.40;99.90;;;;;;5032859;28;20199;-76
2023/08/11 00:10:13;;;;;;;9.20;7.10;;;12.40;99.90;;;;;;5032724;28;20198;-76
2023/08/11 00:12:40;;;;;;;8.63;7.43;;;12.30;99.90;;;;;;5034746;28;20204;-76
2023/08/11 00:15:07;;;;;;;8.10;7.40;;;12.20;99.90;;;;;;5039525;28;20304;-76
2023/08/11 00:17:34;;;;;;;8.53;6.97;;;12.10;99.90;;;;;;5039407;28;20206;-76
2023/08/11 00:20:03;;;;;;;8.03;6.83;;;12.10;99.90;;;;;;5039388;28;20255;-76
2023/08/11 00:22:30;;;;;;;8.93;6.87;;;12.10;99.90;;;;;;5039132;28;20218;-75
2023/08/11 00:24:56;;;;;;;9.20;7.63;;;12.10;99.90;;;;;;5039523;28;20198;-76
2023/08/11 00:27:25;;;;;;;9.97;7.50;;;12.10;99.90;;;;;;5039421;28;20654;-76
2023/08/11 00:29:54;;;;;;;8.03;7.23;;;12.20;99.90;;;;;;5039387;28;20194;-76
2023/08/11 00:32:20;;;;;;;12.10;7.23;;;12.10;99.90;;;;;;5039263;28;20197;-75
2023/08/11 00:34:47;;;;;;;10.70;7.07;;;11.90;99.90;;;;;;5039246;28;20198;-75
2023/08/11 00:37:14;;;;;;;9.80;7.00;;;11.90;99.90;;;;;;5039186;28;20201;-76
2023/08/11 00:39:40;;;;;;;8.73;7.37;;;11.90;99.90;;;;;;5039236;28;20233;-76
2023/08/11 00:42:07;;;;;;;8.90;7.43;;;11.80;99.90;;;;;;5039316;28;20252;-76
2023/08/11 00:44:35;;;;;;;8.50;7.57;;;11.70;99.90;;;;;;5039111;28;20222;-75
2023/08/11 00:47:02;;;;;;;9.40;7.60;;;11.70;99.90;;;;;;5039202;28;20202;-75
2023/08/11 00:49:28;;;;;;;8.10;7.40;;;11.60;99.90;;;;;;5039090;28;20202;-75
2023/08/11 00:51:55;;;;;;;9.60;7.60;;;11.60;99.90;;;;;;5039264;28;20202;-76
2023/08/11 00:54:24;;;;;;;9.40;7.93;;;11.50;99.90;;;;;;5039215;28;20230;-76
2023/08/11 00:56:51;;;;;;;8.20;7.40;;;11.50;99.90;;;;;;5039143;28;20198;-76
2023/08/11 00:59:20;;;;;;;8.57;7.60;;;11.50;99.90;;;;;;5038946;28;20202;-76
2023/08/11 01:01:48;;;;;;;9.97;8.10;;;11.50;99.90;;;;;;5039215;28;20203;-76
2023/08/11 01:04:15;;;;;;;8.83;8.00;;;11.40;99.90;;;;;;5039098;28;20222;-76
2023/08/11 01:06:46;;;;;;;8.43;7.30;;;11.40;99.90;;;;;;5039109;28;20265;-76
2023/08/11 01:09:24;;;;;;;9.00;7.70;;;11.30;99.90;;;;;;5039138;28;20272;-76
2023/08/11 01:12:03;;;;;;;9.63;7.80;;;11.20;99.90;;;;;;5038951;28;20244;-75
2023/08/11 01:14:39;;;;;;;9.77;7.87;;;11.20;99.90;;;;;;5038872;28;20199;-76
2023/08/11 01:17:10;;;;;;;8.37;7.57;;;11.20;99.90;;;;;;5038817;28;20653;-76
2023/08/11 01:19:38;;;;;;;8.97;7.80;;;11.10;99.90;;;;;;5039057;28;20202;-76
2023/08/11 01:22:11;;;;;;;9.43;8.53;;;11.20;99.90;;;;;;5038817;28;20198;-75
2023/08/11 01:24:39;;;;;;;9.33;8.43;;;11.30;99.90;;;;;;5036237;28;20308;-76
2023/08/11 01:27:06;;;;;;;11.27;8.67;;;11.40;99.90;;;;;;5035588;28;20206;-75
2023/08/11 01:29:33;;;;;;;11.30;8.33;;;11.30;99.90;;;;;;5035873;28;20210;-76
2023/08/11 01:31:59;;;;;;;9.53;8.60;;;11.40;99.90;;;;;;5035488;28;20198;-76
2023/08/11 01:34:26;;;;;;;8.93;8.03;;;11.30;99.90;;;;;;5035639;28;20206;-76
2023/08/11 01:36:59;;;;;;;10.77;8.40;;;11.40;99.90;;;;;;5035510;28;20202;-76
2023/08/11 01:39:26;;;;;;;9.07;8.27;;;11.40;99.90;;;;;;5035263;28;20761;-76
2023/08/11 01:41:55;;;;;;;10.17;9.10;;;11.30;99.90;;;;;;5035243;28;20202;-76
2023/08/11 01:44:23;;;;;;;9.17;8.23;;;11.40;99.90;;;;;;5035416;28;20225;-76
2023/08/11 01:46:51;;;;;;;9.37;8.40;;;11.40;99.90;;;;;;5035495;28;20562;-76
2023/08/11 01:49:18;;;;;;;9.40;8.50;;;11.40;99.90;;;;;;5035317;28;20396;-76
2023/08/11 01:51:45;;;;;;;9.70;8.40;;;11.40;99.90;;;;;;5035335;28;20199;-76
2023/08/11 01:54:11;;;;;;;9.83;8.53;;;11.30;99.90;;;;;;5035092;28;20720;-76
2023/08/11 01:56:39;;;;;;;11.80;8.60;;;11.10;99.90;;;;;;5035280;28;20740;-76
2023/08/11 01:59:15;;;;;;;10.73;8.97;;;11.20;99.90;;;;;;5035262;28;20205;-76
2023/08/11 02:01:42;;;;;;;9.83;8.83;;;11.30;99.90;;;;;;5035153;28;20293;-76
2023/08/11 02:04:09;;;;;;;9.60;8.40;;;11.40;99.90;;;;;;5034790;28;20616;-76
2023/08/11 02:06:37;;;;;;;14.77;8.80;;;11.30;99.90;;;;;;5034850;28;20277;-75
2023/08/11 02:09:05;;;;;;;8.80;7.90;;;11.30;99.90;;;;;;5035112;28;20210;-76
2023/08/11 02:11:32;;;;;;;10.90;8.70;;;11.30;99.90;;;;;;5035041;28;20230;-76
2023/08/11 02:13:58;;;;;;;11.23;9.17;;;11.30;99.90;;;;;;5034881;28;20202;-76
2023/08/11 02:16:26;;;;;;;9.87;8.13;;;11.20;99.90;;;;;;5034796;28;20202;-76
2023/08/11 02:18:54;;;;;;;10.30;8.10;;;11.30;99.90;;;;;;5034739;28;20250;-76
2023/08/11 02:21:21;;;;;;;9.80;8.60;;;11.30;99.90;;;;;;5034572;28;20221;-76
2023/08/11 02:23:48;;;;;;;11.53;9.00;;;11.20;99.90;;;;;;5034697;28;20230;-76
2023/08/11 02:26:15;;;;;;;9.33;8.37;;;11.10;99.90;;;;;;5034750;28;20613;-75
2023/08/11 02:28:42;;;;;;;9.77;8.80;;;11.00;99.90;;;;;;5034622;28;20208;-75
2023/08/11 02:31:09;;;;;;;10.53;8.23;;;11.00;99.90;;;;;;5034427;28;20206;-75
2023/08/11 02:33:37;;;;;;;9.57;8.67;;;11.10;99.90;;;;;;5034461;28;20256;-76
2023/08/11 02:36:04;;;;;;;9.43;8.50;;;11.10;99.90;;;;;;5034115;28;20253;-76
2023/08/11 02:38:31;;;;;;;9.50;8.60;;;11.00;99.90;;;;;;5034519;28;20203;-75
2023/08/11 02:40:58;;;;;;;9.63;8.70;;;10.80;99.90;;;;;;5034196;28;20272;-76
2023/08/11 02:43:25;;;;;;;10.13;8.57;;;10.80;99.90;;;;;;5034158;28;20280;-75
2023/08/11 02:45:51;;;;;;;9.93;8.63;;;10.90;99.90;;;;;;5034237;28;20201;-75
2023/08/11 02:48:18;;;;;;;10.10;7.70;;;10.90;99.90;;;;;;5033912;28;20646;-75
2023/08/11 02:50:46;;;;;;;11.30;8.97;;;10.80;99.90;;;;;;5034332;28;20202;-75
2023/08/11 02:53:12;;;;;;;10.90;8.47;;;10.90;99.90;;;;;;5034281;28;20260;-75
2023/08/11 02:55:39;;;;;;;10.20;8.50;;;10.90;99.90;;;;;;5034136;28;20272;-75
2023/08/11 02:58:06;;;;;;;10.00;8.93;;;10.80;99.90;;;;;;5033948;28;20206;-75
2023/08/11 03:00:33;;;;;;;9.40;8.47;;;10.80;99.90;;;;;;5033945;28;20268;-75
2023/08/11 03:03:01;;;;;;;8.93;8.13;;;10.80;99.90;;;;;;5033722;28;20198;-75
2023/08/11 03:05:27;;;;;;;12.17;8.93;;;10.60;99.90;;;;;;5034071;28;20608;-75
2023/08/11 03:07:56;;;;;;;9.20;8.37;;;10.70;99.90;;;;;;5033872;28;20233;-75
2023/08/11 03:10:23;;;;;;;9.70;8.70;;;10.70;99.90;;;;;;5033635;28;20650;-75
2023/08/11 03:12:50;;;;;;;14.77;9.80;;;10.60;99.90;;;;;;5033649;28;20206;-75
2023/08/11 03:15:17;;;;;;;13.17;8.90;;;10.60;99.90;;;;;;5033665;28;20202;-75
2023/08/11 03:17:43;;;;;;;11.77;8.87;;;10.60;99.90;;;;;;5033418;28;20206;-75
2023/08/11 03:20:12;;;;;;;10.07;9.07;;;10.60;99.90;;;;;;5033759;28;20198;-75
2023/08/11 03:22:39;;;;;;;9.90;9.00;;;10.60;99.90;;;;;;5033359;28;20662;-75
2023/08/11 03:25:10;;;;;;;11.53;9.53;;;10.60;99.90;;;;;;5033339;28;20637;-75
2023/08/11 03:27:39;;;;;;;10.10;8.97;;;10.60;99.90;;;;;;5033412;28;20208;-75
2023/08/11 03:30:07;;;;;;;9.97;8.97;;;10.70;99.90;;;;;;5033267;28;20202;-76
2023/08/11 03:32:34;;;;;;;10.57;9.47;;;10.70;99.90;;;;;;5033171;28;20198;-76
2023/08/11 03:35:00;;;;;;;11.90;10.07;;;10.70;99.90;;;;;;5033357;28;20198;-75
2023/08/11 03:37:28;;;;;;;10.73;9.63;;;10.50;99.90;;;;;;5033379;28;20271;-75
2023/08/11 03:39:54;;;;;;;11.20;10.07;;;10.40;99.90;;;;;;5033073;28;20640;-75
2023/08/11 03:42:22;;;;;;;11.87;10.63;;;10.50;99.90;;;;;;5033295;28;20277;-75
2023/08/11 03:44:51;;;;;;;11.03;9.90;;;10.50;99.90;;;;;;5033055;28;20253;-75
2023/08/11 03:47:18;;;;;;;10.33;8.80;;;10.40;99.90;;;;;;5032750;28;20205;-76
2023/08/11 03:49:45;;;;;;;9.77;8.87;;;10.40;99.90;;;;;;5033186;28;20276;-76
2023/08/11 03:52:12;;;;;;;9.77;8.73;;;10.30;99.90;;;;;;5033077;28;20297;-77
2023/08/11 03:54:38;;;;;;;10.67;9.57;;;10.40;99.90;;;;;;5033088;28;20194;-76
2023/08/11 03:57:06;;;;;;;11.20;9.97;;;10.40;99.90;;;;;;5032982;28;20214;-75
2023/08/11 03:59:34;;;;;;;10.20;9.20;;;10.30;99.90;;;;;;5032886;28;20666;-76
2023/08/11 04:02:01;;;;;;;11.80;9.97;;;10.30;99.90;;;;;;5033054;28;20205;-76
2023/08/11 04:04:27;;;;;;;13.07;10.87;;;10.40;99.90;;;;;;5032897;28;20230;-75
2023/08/11 04:06:54;;;;;;;17.53;12.13;;;10.50;99.90;;;;;;5032989;28;20199;-76
2023/08/11 04:09:20;;;;;;;15.50;12.67;;;10.50;99.90;;;;;;5032841;28;20252;-76
2023/08/11 04:11:48;;;;;;;13.47;12.07;;;10.60;99.90;;;;;;5032460;28;20725;-76
2023/08/11 04:14:15;;;;;;;14.30;12.80;;;10.70;99.90;;;;;;5032756;28;20205;-76
2023/08/11 04:16:43;;;;;;;17.43;13.30;;;10.70;99.90;;;;;;5033049;28;20205;-76
2023/08/11 04:19:10;;;;;;;14.10;12.73;;;10.50;99.90;;;;;;5032836;28;20215;-76
2023/08/11 04:21:39;;;;;;;15.23;12.03;;;10.50;99.90;;;;;;5032725;28;20198;-76
2023/08/11 04:24:06;;;;;;;13.00;11.70;;;10.60;99.90;;;;;;5032740;28;20249;-76
2023/08/11 04:26:33;;;;;;;12.63;11.23;;;10.70;99.90;;;;;;5032882;28;20271;-75
2023/08/11 04:29:00;;;;;;;14.40;11.93;;;10.70;99.90;;;;;;5032763;28;20199;-76
2023/08/11 04:31:26;;;;;;;11.67;10.37;;;10.80;99.90;;;;;;5032724;28;20209;-76
2023/08/11 04:33:54;;;;;;;20.63;12.73;;;10.80;99.90;;;;;;5032834;28;20206;-76
2023/08/11 04:36:21;;;;;;;11.70;10.60;;;10.80;99.90;;;;;;5032728;28;20198;-76
2023/08/11 04:38:48;;;;;;;11.67;10.10;;;11.00;99.90;;;;;;5032607;28;20202;-76
2023/08/11 04:41:14;;;;;;;12.30;10.83;;;11.10;99.90;;;;;;5032419;28;20234;-76
2023/08/11 04:43:41;;;;;;;13.10;10.23;;;11.10;99.90;;;;;;5032591;28;20199;-76
2023/08/11 04:46:08;;;;;;;13.33;11.30;;;11.10;99.90;;;;;;5032588;28;20201;-76
2023/08/11 04:48:35;;;;;;;11.07;9.63;;;11.10;99.90;;;;;;5032478;28;20209;-76
2023/08/11 04:51:03;;;;;;;14.27;10.27;;;11.20;99.90;;;;;;5032298;28;20202;-75
2023/08/11 04:53:30;;;;;;;10.90;9.77;;;11.30;99.90;;;;;;5032325;28;20206;-75
2023/08/11 04:55:57;;;;;;;11.63;10.30;;;11.40;99.90;;;;;;5032775;28;20203;-75
2023/08/11 04:58:23;;;;;;;13.90;11.00;;;11.40;99.90;;;;;;5032569;28;20264;-75
2023/08/11 05:00:50;;;;;;;12.23;10.10;;;11.50;99.90;;;;;;5035106;28;20256;-76
2023/08/11 05:03:18;;;;;;;14.07;10.60;;;11.60;99.90;;;;;;5036244;28;20198;-76
2023/08/11 05:05:45;;;;;;;14.80;10.70;;;11.60;99.90;;;;;;5035971;28;20279;-76
2023/08/11 05:08:13;;;;;;;11.43;10.23;;;11.70;99.90;;;;;;5035836;28;20201;-75
2023/08/11 05:10:39;;;;;;;12.27;10.07;;;11.80;99.90;;;;;;5035948;28;20609;-75
2023/08/11 05:13:06;;;;;;;12.17;10.87;;;11.80;99.90;;;;;;5036045;28;20264;-75
2023/08/11 05:15:33;;;;;;;12.30;11.00;;;11.90;99.90;;;;;;5035866;28;20666;-76
2023/08/11 05:18:00;;;;;;;12.00;10.13;;;12.00;99.90;;;;;;5035844;28;20257;-76
2023/08/11 05:20:26;;;;;;;11.40;9.13;;;12.10;99.90;;;;;;5035681;28;20206;-75
2023/08/11 05:22:53;;;;;;;14.47;10.27;;;12.20;99.90;;;;;;5035954;28;20260;-76
2023/08/11 05:25:21;;;;;;;12.50;9.70;;;12.30;99.90;;;;;;5035845;28;20325;-75
2023/08/11 05:27:48;;;;;;;10.60;9.37;;;12.40;99.90;;;;;;5035642;28;20224;-74
2023/08/11 05:30:15;;;;;;;12.50;9.00;;;12.50;99.90;;;;;;5035613;28;20281;-75
2023/08/11 05:32:41;;;;;;;8.97;8.07;;;12.60;99.90;;;;;;5035478;28;20252;-75
2023/08/11 05:35:09;;;;;;;10.87;7.60;;;12.70;99.90;;;;;;5035353;28;20198;-75
2023/08/11 05:37:37;;;;;;;9.67;7.10;;;12.80;99.90;;;;;;5035629;28;20522;-75
2023/08/11 05:40:06;;;;;;;8.80;7.90;;;12.80;99.90;;;;;;5035152;28;20237;-76
2023/08/11 05:42:34;;;;;;;9.80;7.87;;;13.00;99.90;;;;;;5035381;28;20206;-76
2023/08/11 05:45:00;;;;;;;8.30;7.47;;;13.10;99.90;;;;;;5035126;28;20751;-76
2023/08/11 05:47:27;;;;;;;10.40;7.90;;;13.20;99.90;;;;;;5035125;28;20325;-75
2023/08/11 05:49:54;;;;;;;11.57;8.23;;;13.30;99.90;;;;;;5035488;28;20206;-76
2023/08/11 05:52:21;;;;;;;8.63;7.83;;;13.40;99.90;;;;;;5035266;28;20202;-76
2023/08/11 05:54:47;;;;;;;8.93;7.87;;;13.50;99.90;;;;;;5035258;28;20601;-76
2023/08/11 05:57:14;;;;;;;10.83;7.80;;;13.60;99.90;;;;;;5035033;28;20252;-76
2023/08/11 05:59:42;;;;;;;8.43;7.30;;;13.70;99.90;;;;;;5035030;28;20195;-76
2023/08/11 06:02:08;;;;;;;10.20;7.50;;;13.80;99.90;;;;;;5035026;28;20202;-76
2023/08/11 06:04:36;;;;;;;10.30;7.63;;;13.90;99.90;;;;;;5035018;28;20649;-76
2023/08/11 06:07:02;;;;;;;8.43;7.23;;;14.00;99.90;;;;;;5035008;28;20253;-76
2023/08/11 06:09:30;;;;;;;7.97;6.97;;;14.20;99.90;;;;;;5034935;28;20202;-76
2023/08/11 06:11:56;;;;;;;8.10;7.30;;;14.30;99.90;;;;;;5034575;28;20244;-78
2023/08/11 06:14:23;;;;;;;9.00;6.53;;;14.40;99.90;;;;;;5034706;28;20202;-76
2023/08/11 06:16:51;;;;;;;7.77;6.87;;;14.50;99.90;;;;;;5034640;28;20206;-76
2023/08/11 06:19:17;;;;;;;8.10;6.93;;;14.60;99.90;;;;;;5034753;28;20598;-75
2023/08/11 06:21:45;;;;;;;13.90;8.67;;;14.70;99.90;;;;;;5034423;28;20248;-78
2023/08/11 06:24:12;;;;;;;8.73;7.40;;;14.80;99.90;;;;;;5034344;28;20281;-78
2023/08/11 06:26:38;;;;;;;12.23;8.00;;;14.90;99.90;;;;;;5034598;28;20202;-78
2023/08/11 06:29:05;;;;;;;10.10;7.20;;;15.10;99.90;;;;;;5034643;28;20199;-77
2023/08/11 06:31:32;;;;;;;13.67;8.03;;;15.20;99.90;;;;;;5034974;28;20206;-80
2023/08/11 06:34:00;;;;;;;7.70;6.95;;;15.30;99.90;;;;;;5034946;28;20194;-78
2023/08/11 06:36:26;;;;;;;7.47;6.63;;;15.40;99.90;;;;;;5034606;28;20268;-78
2023/08/11 06:38:53;;;;;;;8.83;6.67;;;15.60;99.90;;;;;;5034382;28;20206;-78
2023/08/11 06:41:20;;;;;;;10.27;7.32;;;15.60;99.90;;;;;;5034083;28;20260;-78
2023/08/11 06:43:47;;;;;;;9.90;7.25;;;15.80;99.90;;;;;;5034072;28;20248;-78
2023/08/11 06:46:14;;;;;;;9.40;7.35;;;15.90;99.90;;;;;;5034394;28;20229;-78
2023/08/11 06:48:41;;;;;;;9.10;7.75;;;16.10;99.90;;;;;;5034174;28;20608;-78
2023/08/11 06:51:09;;;;;;;11.30;7.07;;;16.00;99.90;;;;;;5034790;28;20252;-77
2023/08/11 06:53:36;;;;;;;11.07;7.32;;;16.10;99.90;;;;;;5034597;28;20613;-79
2023/08/11 06:56:02;;;;;;;7.80;6.63;;;16.30;99.90;;;;;;5041113;28;20207;-77
2023/08/11 06:58:29;;;;;;;8.27;6.22;;;16.50;99.90;;;;;;5033985;28;20248;-76
2023/08/11 07:00:56;;;;;;;7.38;5.78;;;16.60;99.90;;;;;;5034051;28;20203;-78
2023/08/11 07:03:22;;;;;;;7.07;5.93;;;16.70;99.90;;;;;;5033748;28;20221;-78
2023/08/11 07:05:51;;;;;;;11.07;6.10;;;16.80;99.90;;;;;;5033875;28;20590;-85
2023/08/11 07:08:19;;;;;;;7.03;5.80;;;16.90;99.90;;;;;;5034721;28;20289;-78
2023/08/11 07:10:45;;;;;;;8.60;6.07;;;17.00;99.90;;;;;;5033721;28;20658;-79
2023/08/11 07:13:12;;;;;;;6.30;5.28;;;17.20;99.90;;;;;;5033940;28;20206;-79
2023/08/11 07:15:42;;;;;;;8.63;5.65;;;17.30;99.90;;;;;;5033461;28;20198;-78
2023/08/11 07:18:09;;;;;;;7.32;5.63;;;17.40;99.90;;;;;;5033673;28;20195;-78
2023/08/11 07:20:36;;;;;;;6.75;5.05;;;17.60;99.90;;;;;;5033472;28;20289;-77
2023/08/11 07:23:03;;;;;;;7.53;5.70;;;17.70;99.90;;;;;;5032593;28;20206;-78
2023/08/11 07:25:31;;;;;;;7.43;4.43;;;17.90;99.90;;;;;;5033272;28;20226;-78
2023/08/11 07:27:57;;;;;;;5.50;4.50;;;18.10;99.90;;;;;;5033114;28;20205;-77
2023/08/11 07:30:24;;;;;;;6.07;5.28;;;18.30;99.90;;;;;;5033100;28;20634;-78
2023/08/11 07:32:51;;;;;;;5.85;5.20;;;18.50;99.90;;;;;;5033289;28;20249;-78
2023/08/11 07:35:18;;;;;;;8.05;4.80;;;18.80;99.90;;;;;;5033304;28;20260;-78
2023/08/11 07:37:45;;;;;;;7.63;4.65;;;19.00;99.90;;;;;;5033111;28;20216;-79
2023/08/11 07:40:12;;;;;;;6.57;4.50;;;19.20;99.90;;;;;;5032823;28;20234;-77
2023/08/11 07:42:40;;;;;;;6.05;4.55;;;19.50;99.90;;;;;;5033163;28;20289;-78
2023/08/11 07:45:08;;;;;;;7.95;4.90;;;19.70;99.90;;;;;;5033047;28;20218;-77
2023/08/11 07:47:35;;;;;;;5.68;4.07;;;19.90;99.90;;;;;;5033466;28;20257;-77
2023/08/11 07:50:01;;;;;;;6.47;4.35;;;20.10;99.90;;;;;;5032897;28;20256;-78
2023/08/11 07:52:28;;;;;;;5.55;4.35;;;20.30;99.90;;;;;;5032815;28;20211;-77
2023/08/11 07:54:55;;;;;;;4.30;3.90;;;20.50;99.90;;;;;;5032852;28;20202;-77
2023/08/11 07:57:21;;;;;;;6.38;3.78;;;20.70;99.90;;;;;;5033046;28;20194;-77
2023/08/11 07:59:49;;;;;;;4.15;3.60;;;20.90;99.90;;;;;;5033060;28;20206;-78
2023/08/11 08:02:16;;;;;;;7.35;4.07;;;21.00;99.90;;;;;;5033013;28;20616;-77
2023/08/11 08:04:43;;;;;;;3.97;3.67;;;21.30;99.90;;;;;;5032784;28;20198;-77
2023/08/11 08:07:10;;;;;;;4.45;3.85;;;21.30;99.90;;;;;;5032811;28;20264;-77
2023/08/11 08:09:38;;;;;;;5.28;3.90;;;21.40;99.90;;;;;;5033030;28;20205;-78
2023/08/11 08:12:06;;;;;;;5.43;3.75;;;21.40;99.90;;;;;;5032897;28;20290;-77
2023/08/11 08:14:32;;;;;;;5.32;3.85;;;21.50;99.90;;;;;;5032782;28;20249;-77
2023/08/11 08:17:01;;;;;;;4.65;3.47;;;21.70;99.90;;;;;;5032795;28;20237;-78
2023/08/11 08:19:28;;;;;;;4.80;3.35;;;21.90;99.90;;;;;;5032557;28;20224;-75
2023/08/11 08:21:54;;;;;;;5.35;3.40;;;22.20;99.90;;;;;;5032664;28;20251;-77
2023/08/11 08:24:21;;;;;;;4.32;3.80;;;22.40;99.90;;;;;;5032866;28;20206;-78
2023/08/11 08:26:48;;;;;;;3.50;3.20;;;22.60;99.90;;;;;;5032756;28;20222;-78
2023/08/11 08:29:15;;;;;;;5.03;3.33;;;23.00;99.90;;;;;;5032756;28;20258;-77
2023/08/11 08:31:41;;;;;;;3.65;3.15;;;23.10;99.90;;;;;;5032721;28;20198;-78
2023/08/11 08:34:09;;;;;;;3.65;3.25;;;23.30;99.90;;;;;;5034147;28;20202;-77
2023/08/11 08:36:36;;;;;;;4.05;3.38;;;23.50;99.90;;;;;;5036628;28;20653;-77
2023/08/11 08:39:03;;;;;;;3.10;2.80;;;23.60;99.90;;;;;;5036585;28;20207;-77
2023/08/11 08:41:31;;;;;;;5.05;2.90;;;23.50;99.90;;;;;;5036492;28;20692;-78
2023/08/11 08:44:00;;;;;;;4.82;3.13;;;23.80;99.90;;;;;;5036329;28;20788;-78
2023/08/11 08:46:28;;;;;;;3.20;2.90;;;23.90;99.90;;;;;;5036305;28;20225;-79
2023/08/11 08:49:04;;;;;;;3.42;3.10;;;24.20;99.90;;;;;;5036354;28;20226;-78
2023/08/11 08:51:32;;;;;;;4.57;2.90;;;24.30;99.90;;;;;;5036538;28;20208;-78
2023/08/11 08:53:59;;;;;;;4.18;3.10;;;24.20;99.90;;;;;;5036358;28;20598;-78
2023/08/11 08:56:27;;;;;;;3.83;3.28;;;24.30;99.90;;;;;;5036518;28;20248;-78
2023/08/11 08:58:54;;;;;;;4.63;2.92;;;24.50;99.90;;;;;;5036196;28;20256;-78
2023/08/11 09:01:21;;;;;;;4.78;2.90;;;24.10;99.90;;;;;;5036307;28;20256;-78
2023/08/11 09:03:48;;;;;;;3.42;3.00;;;24.10;99.90;;;;;;5036345;28;20202;-79
2023/08/11 09:06:16;;;;;;;4.45;3.10;;;24.30;99.90;;;;;;5036088;28;20232;-79
2023/08/11 09:08:45;;;;;;;3.25;2.95;;;24.60;99.90;;;;;;5035890;28;20674;-79
2023/08/11 09:11:12;;;;;;;3.75;3.28;;;24.80;99.90;;;;;;5035877;28;20230;-79
2023/08/11 09:13:38;;;;;;;3.75;2.80;;;25.00;99.90;;;;;;5035692;28;20198;-78
2023/08/11 09:16:06;;;;;;;3.20;2.90;;;24.80;99.90;;;;;;5035649;28;20527;-79
2023/08/11 09:18:33;;;;;;;3.95;3.33;;;24.90;99.90;;;;;;5035873;28;20213;-78
2023/08/11 09:21:01;;;;;;;3.45;3.15;;;25.10;99.90;;;;;;5036036;28;20195;-78
2023/08/11 09:23:28;;;;;;;3.25;2.95;;;25.20;99.90;;;;;;5035744;28;20231;-79
2023/08/11 09:25:56;;;;;;;3.35;3.00;;;25.30;99.90;;;;;;5035731;28;20229;-78
2023/08/11 09:28:23;;;;;;;3.30;2.97;;;25.40;99.90;;;;;;5035473;28;20700;-79
2023/08/11 09:30:50;;;;;;;3.53;3.22;;;25.70;99.90;;;;;;5035931;28;20195;-79
2023/08/11 09:33:17;;;;;;;3.35;3.05;;;26.10;99.90;;;;;;5035516;28;20205;-79
2023/08/11 09:35:44;;;;;;;4.57;3.00;;;25.70;99.90;;;;;;5035442;28;20264;-78
2023/08/11 09:38:11;;;;;;;3.70;3.40;;;25.90;99.90;;;;;;5035198;28;20857;-79
2023/08/11 09:40:37;;;;;;;3.30;3.00;;;26.10;99.90;;;;;;5035043;28;20225;-79
2023/08/11 09:43:05;;;;;;;3.20;2.88;;;26.20;99.90;;;;;;5035134;28;20202;-79
2023/08/11 09:45:33;;;;;;;3.15;2.72;;;26.70;99.90;;;;;;5034210;28;20222;-79
2023/08/11 09:48:00;;;;;;;3.30;2.92;;;26.50;99.90;;;;;;5035092;28;20293;-79
2023/08/11 09:50:28;;;;;;;2.83;2.55;;;26.70;99.90;;;;;;5035170;28;20206;-78
2023/08/11 09:52:58;;;;;;;3.10;2.72;;;26.90;99.90;;;;;;5035115;28;20198;-79
2023/08/11 09:55:26;;;;;;;2.75;2.55;;;27.30;99.90;;;;;;5034910;28;20195;-79
2023/08/11 09:57:53;;;;;;;2.72;2.53;;;26.70;99.90;;;;;;5034942;28;20650;-79
2023/08/11 10:00:21;;;;;;;3.08;2.65;;;26.90;99.90;;;;;;5034846;28;20198;-79
2023/08/11 10:02:56;;;;;;;4.85;3.15;;;27.50;99.90;;;;;;5034990;28;20198;-78
2023/08/11 10:05:25;;;;;;;3.53;2.83;;;27.80;99.90;;;;;;5034807;28;20268;-79
2023/08/11 10:07:53;;;;;;;2.78;2.50;;;27.40;99.90;;;;;;5034601;28;20202;-78
2023/08/11 10:10:22;;;;;;;3.80;2.80;;;27.30;99.90;;;;;;5034773;28;20229;-79
2023/08/11 10:12:59;;;;;;;2.88;2.53;;;27.80;99.90;;;;;;5034553;28;20646;-79
2023/08/11 10:15:30;;;;;;;2.65;2.45;;;28.90;99.90;;;;;;5034578;28;20240;-79
2023/08/11 10:17:57;;;;;;;2.72;2.50;;;29.60;98.60;;;;;;5034933;28;20202;-79
2023/08/11 10:20:23;;;;;;;4.22;2.60;;;29.30;97.90;;;;;;5034579;28;20202;-79
2023/08/11 10:22:50;;;;;;;5.40;2.60;;;29.40;97.80;;;;;;5034673;28;20198;-79
2023/08/11 10:25:17;;;;;;;2.78;2.58;;;29.50;97.90;;;;;;5034770;28;20262;-79
2023/08/11 10:27:45;;;;;;;3.58;2.90;;;29.50;97.40;;;;;;5034244;28;20711;-79
2023/08/11 10:30:14;;;;;;;2.70;2.50;;;28.80;97.30;;;;;;5034532;28;20207;-79
2023/08/11 10:32:42;;;;;;;3.83;2.60;;;28.80;97.50;;;;;;5034284;28;20206;-79
2023/08/11 10:35:17;;;;;;;4.72;2.60;;;28.40;97.60;;;;;;5034301;28;20264;-80
2023/08/11 10:37:44;;;;;;;2.80;2.10;;;28.90;98.00;;;;;;5034443;28;20213;-79
2023/08/11 10:40:11;;;;;;;3.00;2.80;;;29.50;97.30;;;;;;5034189;28;20586;-79
2023/08/11 10:42:40;;;;;;;2.70;2.50;;;30.00;96.70;;;;;;5034777;28;20220;-79
2023/08/11 10:45:10;;;;;;;2.70;2.50;;;30.00;96.30;;;;;;5034043;28;20562;-79
2023/08/11 10:47:38;;;;;;;2.67;2.47;;;30.40;95.90;;;;;;5041216;28;20225;-78
2023/08/11 10:50:08;;;;;;;2.88;2.65;;;30.80;95.30;;;;;;5053834;28;20710;-78
2023/08/11 10:52:35;;;;;;;2.53;2.25;;;31.80;95.40;;;;;;5054042;28;20201;-79
2023/08/11 10:55:03;;;;;;;4.57;2.40;;;32.40;92.90;;;;;;5053962;28;20197;-78
2023/08/11 10:57:31;;;;;;;3.83;2.42;;;33.20;92.00;;;;;;5053588;28;20700;-80
2023/08/11 10:59:57;;;;;;;4.25;2.47;;;32.70;91.00;;;;;;5053695;28;20201;-82
2023/08/11 11:02:25;;;;;;;3.58;2.50;;;33.50;90.10;;;;;;5053889;28;20200;-79
2023/08/11 11:04:53;;;;;;;2.30;2.10;;;33.30;88.50;;;;;;5053777;28;20483;-80
2023/08/11 11:07:23;;;;;;;2.83;2.00;;;33.80;87.20;;;;;;5053743;28;20232;-78
2023/08/11 11:09:51;;;;;;;2.42;2.10;;;34.00;84.40;;;;;;5053619;28;20224;-79
2023/08/11 11:12:18;;;;;;;3.33;2.63;;;34.50;82.80;;;;;;5053650;28;20201;-79
2023/08/11 11:14:45;;;;;;;2.60;2.40;;;35.40;80.00;;;;;;5053361;28;20619;-81
2023/08/11 11:17:12;;;;;;;2.60;2.40;;;35.30;78.50;;;;;;5053666;28;20263;-80
2023/08/11 11:19:38;;;;;;;2.35;2.20;;;35.60;78.10;;;;;;5053477;28;20201;-81
2023/08/11 11:22:07;;;;;;;3.58;2.40;;;35.40;74.40;;;;;;5053468;28;20533;-80
2023/08/11 11:24:35;;;;;;;2.55;2.22;;;35.80;75.50;;;;;;5053224;28;20549;-79
2023/08/11 11:27:02;;;;;;;3.13;2.17;;;35.20;72.10;;;;;;5045383;28;20264;-78
2023/08/11 11:29:29;;;;;;;3.35;2.30;;;35.50;71.60;;;;;;5035048;28;20194;-78
2023/08/11 11:31:56;;;;;;;2.70;2.50;;;36.10;70.20;;;;;;5033494;28;20208;-78
2023/08/11 11:34:23;;;;;;;2.38;2.17;;;35.30;68.40;;;;;;5033262;28;20248;-79
2023/08/11 11:36:50;;;;;;;2.95;2.50;;;35.90;69.10;;;;;;5033338;28;20256;-78
2023/08/11 11:39:18;;;;;;;2.58;2.38;;;37.30;67.40;;;;;;5036194;28;20198;-79
2023/08/11 11:41:45;;;;;;;2.25;2.15;;;38.10;65.00;;;;;;5033019;28;20208;-79
2023/08/11 11:44:12;;;;;;;3.13;2.28;;;37.70;60.60;;;;;;5044115;28;20262;-78
2023/08/11 11:46:39;;;;;;;2.78;2.20;;;37.40;60.10;;;;;;5047035;28;20601;-78
2023/08/11 11:49:06;;;;;;;2.28;2.08;;;36.90;60.10;;;;;;5034679;28;20209;-79
2023/08/11 11:51:33;;;;;;;3.00;1.80;;;36.20;57.70;;;;;;5036520;28;20269;-77
2023/08/11 11:54:00;;;;;;;3.80;2.08;;;35.70;58.90;;;;;;5052594;28;20251;-75
2023/08/11 11:56:28;;;;;;;2.58;2.10;;;35.30;58.80;;;;;;5041847;28;20295;-75
2023/08/11 11:58:57;;;;;;;2.30;2.10;;;36.60;58.60;;;;;;5032738;28;20244;-75
2023/08/11 12:01:26;;;;;;;1.98;1.88;;;36.70;58.90;;;;;;5032704;28;20194;-77
2023/08/11 12:03:57;;;;;;;3.33;2.20;;;35.90;56.90;;;;;;5032668;28;20201;-77
2023/08/11 12:06:24;;;;;;;3.03;1.92;;;36.70;57.60;;;;;;5041423;28;20189;-78
2023/08/11 12:08:52;;;;;;;2.40;1.90;;;36.70;57.00;;;;;;5051901;28;20197;-79
2023/08/11 12:11:24;;;;;;;1.88;1.70;;;37.20;55.80;;;;;;5052195;28;20224;-78
2023/08/11 12:13:51;;;;;;;2.10;2.00;;;37.70;56.30;;;;;;5052366;28;20707;-77
2023/08/11 12:16:20;;;;;;;2.30;2.10;;;37.70;53.90;;;;;;5051546;28;20212;-77
2023/08/11 12:18:48;;;;;;;2.10;2.00;;;37.10;54.30;;;;;;5052354;28;20197;-77
2023/08/11 12:21:14;;;;;;;1.92;1.83;;;38.30;54.30;;;;;;5051642;28;20215;-77
2023/08/11 12:23:41;;;;;;;2.85;1.60;;;38.30;53.70;;;;;;5052354;28;20197;-78
2023/08/11 12:26:09;;;;;;;3.40;1.80;;;37.60;52.00;;;;;;5052013;28;20251;-78
2023/08/11 12:28:36;;;;;;;1.92;1.80;;;37.60;52.40;;;;;;5052029;28;20300;-78
2023/08/11 12:31:03;;;;;;;1.92;1.75;;;37.40;52.50;;;;;;5051766;28;20243;-78
2023/08/11 12:33:31;;;;;;;2.05;1.90;;;38.30;52.20;;;;;;5052035;28;20205;-78
2023/08/11 12:35:58;;;;;;;1.90;1.80;;;39.20;51.20;;;;;;5051742;28;20247;-79
2023/08/11 12:38:24;;;;;;;3.08;2.03;;;39.00;49.50;;;;;;5051886;28;20225;-77
2023/08/11 12:40:51;;;;;;;2.10;1.90;;;38.10;49.30;;;;;;5051313;28;20232;-78
2023/08/11 12:43:18;;;;;;;3.25;1.80;;;36.90;49.40;;;;;;5051777;28;20231;-77